createdAt,value
2023-03-04T00:00:08.165Z,51.85
2023-03-04T00:02:35.117Z,52.05
2023-03-04T00:05:03.805Z,49.50
2023-03-04T00:07:30.700Z,50.85
2023-03-04T00:09:57.819Z,51.80
2023-03-04T00:12:24.733Z,53.70
2023-03-04T00:14:51.494Z,48.70
2023-03-04T00:17:18.312Z,51.42
2023-03-04T00:19:45.236Z,50.65
2023-03-04T00:22:13.373Z,54.13
2023-03-04T00:24:40.252Z,50.42
2023-03-04T00:27:07.059Z,49.10
2023-03-04T00:29:33.857Z,49.13
2023-03-04T00:32:00.709Z,51.85
2023-03-04T00:34:27.638Z,50.80
2023-03-04T00:36:54.395Z,55.22
2023-03-04T00:39:24.365Z,48.60
2023-03-04T00:41:51.183Z,48.28
2023-03-04T00:44:17.957Z,46.38
2023-03-04T00:46:44.840Z,51.58
2023-03-04T00:49:11.713Z,49.85
2023-03-04T00:51:38.562Z,53.15
2023-03-04T00:54:05.331Z,50.25
2023-03-04T00:56:33.430Z,54.30
2023-03-04T00:59:00.230Z,52.40
2023-03-04T01:01:27.038Z,51.67
2023-03-04T01:03:53.834Z,50.15
2023-03-04T01:06:20.623Z,47.20
2023-03-04T01:08:47.538Z,54.17
2023-03-04T01:11:14.375Z,53.05
2023-03-04T01:13:42.545Z,53.50
2023-03-04T01:16:09.364Z,51.88
2023-03-04T01:18:36.124Z,52.85
2023-03-04T01:21:03.267Z,51.60
2023-03-04T01:23:30.119Z,55.90
2023-03-04T01:25:56.947Z,52.35
2023-03-04T01:28:24.158Z,51.72
2023-03-04T01:30:52.356Z,49.78
2023-03-04T01:33:19.187Z,52.05
2023-03-04T01:35:46.106Z,47.85
2023-03-04T01:38:12.954Z,48.25
2023-03-04T01:40:40.029Z,45.92
2023-03-04T01:43:06.944Z,47.38
2023-03-04T01:45:35.183Z,50.17
2023-03-04T01:48:03.598Z,51.83
2023-03-04T01:50:33.595Z,47.83
2023-03-04T01:53:00.926Z,46.13
2023-03-04T01:55:28.595Z,45.75
2023-03-04T01:57:55.770Z,46.03
2023-03-04T02:00:26.599Z,49.00
2023-03-04T02:02:55.297Z,48.35
2023-03-04T02:05:23.949Z,47.05
2023-03-04T02:07:52.046Z,47.95
2023-03-04T02:10:19.091Z,42.38
2023-03-04T02:12:45.957Z,44.38
2023-03-04T02:15:12.888Z,48.47
2023-03-04T02:17:39.749Z,48.22
2023-03-04T02:20:15.587Z,46.08
2023-03-04T02:22:51.681Z,48.35
2023-03-04T02:25:24.030Z,48.15
2023-03-04T02:27:52.325Z,43.40
2023-03-04T02:30:23.459Z,48.50
2023-03-04T02:32:50.355Z,48.92
2023-03-04T02:35:18.519Z,45.50
2023-03-04T02:37:45.406Z,46.10
2023-03-04T02:40:18.035Z,45.10
2023-03-04T02:42:45.078Z,46.58
2023-03-04T02:45:39.637Z,44.72
2023-03-04T02:48:07.228Z,43.08
2023-03-04T02:50:37.729Z,44.20
2023-03-04T02:53:04.921Z,45.90
2023-03-04T02:55:31.769Z,46.47
2023-03-04T02:57:58.846Z,45.60
2023-03-04T03:00:26.219Z,45.63
2023-03-04T03:02:54.647Z,41.38
2023-03-04T03:05:21.520Z,44.47
2023-03-04T03:07:48.308Z,46.70
2023-03-04T03:10:15.122Z,43.05
2023-03-04T03:12:42.046Z,42.67
2023-03-04T03:15:09.597Z,49.33
2023-03-04T03:17:36.345Z,46.67
2023-03-04T03:20:05.658Z,46.97
2023-03-04T03:22:32.398Z,47.42
2023-03-04T03:24:59.189Z,46.38
2023-03-04T03:27:26.008Z,49.25
2023-03-04T03:29:52.781Z,48.25
2023-03-04T03:32:19.660Z,46.47
2023-03-04T03:34:46.440Z,44.22
2023-03-04T03:37:14.596Z,49.33
2023-03-04T03:39:41.424Z,42.42
2023-03-04T03:42:08.243Z,45.25
2023-03-04T03:44:35.003Z,46.92
2023-03-04T03:47:01.971Z,45.08
2023-03-04T03:49:28.760Z,39.42
2023-03-04T03:51:55.792Z,44.30
2023-03-04T03:54:23.878Z,46.60
2023-03-04T03:56:50.605Z,48.00
2023-03-04T03:59:17.397Z,48.60
2023-03-04T04:01:44.161Z,54.35
2023-03-04T04:04:10.969Z,48.35
2023-03-04T04:06:37.880Z,47.72
2023-03-04T04:09:04.778Z,50.00
2023-03-04T04:11:32.873Z,45.90
2023-03-04T04:13:59.621Z,45.10
2023-03-04T04:16:26.476Z,43.45
2023-03-04T04:18:53.270Z,43.80
2023-03-04T04:21:20.396Z,45.30
2023-03-04T04:23:47.202Z,46.00
2023-03-04T04:26:13.978Z,43.08
2023-03-04T04:28:42.111Z,42.10
2023-03-04T04:31:09.539Z,39.85
2023-03-04T04:33:36.882Z,44.47
2023-03-04T04:36:04.147Z,46.08
2023-03-04T04:38:31.020Z,42.45
2023-03-04T04:40:58.118Z,42.80
2023-03-04T04:43:25.159Z,43.22
2023-03-04T04:45:53.334Z,42.30
2023-03-04T04:48:20.137Z,42.38
2023-03-04T04:50:46.974Z,43.25
2023-03-04T04:53:13.763Z,38.88
2023-03-04T04:55:40.518Z,40.00
2023-03-04T04:58:07.605Z,44.97
2023-03-04T05:00:34.460Z,42.55
2023-03-04T05:03:02.689Z,38.42
2023-03-04T05:05:29.446Z,39.75
2023-03-04T05:07:56.281Z,38.95
2023-03-04T05:10:23.038Z,40.30
2023-03-04T05:12:49.812Z,40.67
2023-03-04T05:15:17.029Z,43.08
2023-03-04T05:17:43.822Z,44.63
2023-03-04T05:20:12.905Z,41.38
2023-03-04T05:22:39.747Z,39.30
2023-03-04T05:25:06.882Z,39.92
2023-03-04T05:27:33.928Z,41.80
2023-03-04T05:30:00.690Z,41.20
2023-03-04T05:32:28.262Z,37.58
2023-03-04T05:34:55.151Z,34.58
2023-03-04T05:37:23.303Z,39.13
2023-03-04T05:39:50.067Z,39.78
2023-03-04T05:42:16.861Z,37.17
2023-03-04T05:44:43.618Z,39.17
2023-03-04T05:47:10.361Z,39.00
2023-03-04T05:49:37.136Z,36.70
2023-03-04T05:52:03.931Z,38.47
2023-03-04T05:54:32.126Z,38.50
2023-03-04T05:56:58.904Z,37.58
2023-03-04T05:59:25.836Z,40.40
2023-03-04T06:01:52.623Z,40.13
2023-03-04T06:04:19.634Z,40.80
2023-03-04T06:06:46.401Z,38.55
2023-03-04T06:09:13.402Z,38.00
2023-03-04T06:11:41.949Z,40.10
2023-03-04T06:14:08.797Z,38.08
2023-03-04T06:16:35.636Z,35.25
2023-03-04T06:19:02.451Z,35.88
2023-03-04T06:21:29.258Z,36.33
2023-03-04T06:23:56.034Z,39.83
2023-03-04T06:26:22.863Z,41.70
2023-03-04T06:28:50.988Z,33.53
2023-03-04T06:31:17.950Z,39.22
2023-03-04T06:33:44.774Z,38.92
2023-03-04T06:36:11.553Z,34.65
2023-03-04T06:38:38.344Z,35.30
2023-03-04T06:41:08.869Z,39.25
2023-03-04T06:43:35.723Z,39.17
2023-03-04T06:46:03.983Z,37.63
2023-03-04T06:48:30.810Z,37.63
2023-03-04T06:50:57.604Z,40.67
2023-03-04T06:53:24.451Z,37.65
2023-03-04T06:55:52.419Z,36.20
2023-03-04T06:58:19.245Z,38.00
2023-03-04T07:00:46.073Z,36.30
2023-03-04T07:03:14.232Z,35.88
2023-03-04T07:05:42.107Z,36.25
2023-03-04T07:08:08.977Z,40.92
2023-03-04T07:10:36.025Z,36.45
2023-03-04T07:13:03.126Z,38.03
2023-03-04T07:15:30.035Z,34.30
2023-03-04T07:17:56.873Z,36.58
2023-03-04T07:20:25.148Z,38.20
2023-03-04T07:22:51.927Z,37.42
2023-03-04T07:25:18.906Z,38.42
2023-03-04T07:27:45.701Z,36.42
2023-03-04T07:30:13.207Z,35.05
2023-03-04T07:32:40.094Z,36.92
2023-03-04T07:35:07.849Z,38.85
2023-03-04T07:37:36.103Z,37.75
2023-03-04T07:40:03.187Z,38.08
2023-03-04T07:42:29.984Z,38.00
2023-03-04T07:44:56.792Z,37.60
2023-03-04T07:47:23.597Z,37.78
2023-03-04T07:49:50.336Z,40.55
2023-03-04T07:52:17.152Z,38.35
2023-03-04T07:54:45.396Z,41.80
2023-03-04T07:57:12.133Z,37.20
2023-03-04T07:59:39.378Z,34.92
2023-03-04T08:02:06.747Z,44.25
2023-03-04T08:04:33.567Z,41.05
2023-03-04T08:07:00.783Z,40.65
2023-03-04T08:09:27.570Z,39.80
2023-03-04T08:11:55.715Z,36.97
2023-03-04T08:14:22.549Z,41.33
2023-03-04T08:16:49.362Z,43.08
2023-03-04T08:19:16.155Z,43.22
2023-03-04T08:21:42.938Z,42.28
2023-03-04T08:24:11.021Z,37.30
2023-03-04T08:26:41.010Z,43.45
2023-03-04T08:29:11.392Z,42.83
2023-03-04T08:31:38.322Z,42.00
2023-03-04T08:34:06.863Z,43.22
2023-03-04T08:36:34.153Z,41.70
2023-03-04T08:39:00.904Z,38.97
2023-03-04T08:41:27.853Z,38.53
2023-03-04T08:43:54.773Z,39.13
2023-03-04T08:46:22.979Z,40.17
2023-03-04T08:48:49.781Z,45.05
2023-03-04T08:51:16.773Z,38.13
2023-03-04T08:53:44.015Z,41.97
2023-03-04T08:56:11.724Z,42.05
2023-03-04T08:58:38.633Z,42.90
2023-03-04T09:01:08.375Z,39.25
2023-03-04T09:03:36.602Z,38.95
2023-03-04T09:06:04.643Z,37.65
2023-03-04T09:08:32.134Z,40.45
2023-03-04T09:10:59.150Z,39.45
2023-03-04T09:13:26.527Z,39.88
2023-03-04T09:15:53.468Z,38.03
2023-03-04T09:18:22.612Z,38.40
2023-03-04T09:20:51.536Z,35.60
2023-03-04T09:23:19.657Z,40.33
2023-03-04T09:25:47.342Z,34.30
2023-03-04T09:28:15.177Z,32.95
2023-03-04T09:30:42.401Z,38.42
2023-03-04T09:33:09.337Z,33.08
2023-03-04T09:35:36.374Z,33.28
2023-03-04T09:38:04.678Z,35.58
2023-03-04T09:40:38.906Z,29.67
2023-03-04T09:43:10.425Z,36.50
2023-03-04T09:45:41.329Z,32.15
2023-03-04T09:48:12.896Z,34.00
2023-03-04T09:50:49.246Z,30.25
2023-03-04T09:53:22.868Z,36.65
2023-03-04T09:55:52.553Z,34.58
2023-03-04T09:58:33.783Z,32.28
2023-03-04T10:01:08.253Z,34.03
2023-03-04T10:03:43.524Z,36.13
2023-03-04T10:06:14.909Z,33.38
2023-03-04T10:08:50.032Z,38.42
2023-03-04T10:11:20.440Z,26.70
2023-03-04T10:14:00.239Z,34.63
2023-03-04T10:16:32.846Z,33.90
2023-03-04T10:19:11.019Z,35.28
2023-03-04T10:21:42.658Z,35.25
2023-03-04T10:24:12.793Z,34.10
2023-03-04T10:26:41.091Z,30.50
2023-03-04T10:29:09.694Z,28.15
2023-03-04T10:31:37.946Z,33.40
2023-03-04T10:34:05.945Z,34.83
2023-03-04T10:36:49.719Z,35.05
2023-03-04T10:39:22.784Z,31.95
2023-03-04T10:41:57.455Z,31.17
2023-03-04T10:44:25.054Z,30.30
2023-03-04T10:46:55.034Z,31.90
2023-03-04T10:49:21.974Z,37.47
2023-03-04T10:51:51.235Z,31.55
2023-03-04T10:54:27.967Z,33.58
2023-03-04T10:57:00.508Z,36.03
2023-03-04T10:59:45.890Z,30.35
2023-03-04T11:02:22.829Z,33.03
2023-03-04T11:04:51.837Z,38.28
2023-03-04T11:07:19.103Z,29.33
2023-03-04T11:09:47.225Z,27.98
2023-03-04T11:12:16.226Z,28.42
2023-03-04T11:14:46.555Z,28.80
2023-03-04T11:17:22.688Z,31.90
2023-03-04T11:19:55.734Z,28.48
2023-03-04T11:22:24.279Z,27.45
2023-03-04T11:24:58.233Z,29.65
2023-03-04T11:27:37.793Z,29.63
2023-03-04T11:30:24.730Z,30.85
2023-03-04T11:32:55.796Z,30.88
2023-03-04T11:35:26.965Z,30.40
2023-03-04T11:38:01.838Z,30.52
2023-03-04T11:40:38.955Z,34.13
2023-03-04T11:43:11.449Z,33.72
2023-03-04T11:46:00.355Z,31.02
2023-03-04T11:48:42.423Z,32.83
2023-03-04T11:51:15.672Z,37.15
2023-03-04T11:53:53.378Z,29.77
2023-03-04T11:56:36.421Z,31.08
2023-03-04T11:59:35.317Z,33.28
2023-03-04T12:02:13.821Z,31.85
2023-03-04T12:05:17.364Z,33.42
2023-03-04T12:08:07.087Z,35.28
2023-03-04T12:10:39.864Z,34.38
2023-03-04T12:13:37.583Z,37.45
2023-03-04T12:16:18.328Z,35.08
2023-03-04T12:19:03.160Z,36.78
2023-03-04T12:21:52.423Z,34.20
2023-03-04T12:24:33.142Z,33.30
2023-03-04T12:27:13.890Z,37.85
2023-03-04T12:29:48.725Z,30.38
2023-03-04T12:32:23.668Z,37.25
2023-03-04T12:35:08.112Z,34.22
2023-03-04T12:40:31.375Z,27.90
2023-03-04T12:43:16.034Z,30.55
2023-03-04T12:45:52.149Z,31.02
2023-03-04T12:48:29.633Z,30.98
2023-03-04T12:51:13.404Z,31.52
2023-03-04T12:53:49.087Z,31.13
2023-03-04T12:56:25.078Z,31.27
2023-03-04T12:58:53.000Z,30.90
2023-03-04T13:01:26.217Z,32.72
2023-03-04T13:04:00.474Z,31.27
2023-03-04T13:06:38.624Z,30.90
2023-03-04T13:09:16.019Z,31.20
2023-03-04T13:11:52.630Z,27.88
2023-03-04T13:14:34.183Z,24.65
2023-03-04T13:17:21.926Z,27.65
2023-03-04T13:19:52.496Z,27.17
2023-03-04T13:22:44.806Z,23.55
2023-03-04T13:25:35.778Z,28.02
2023-03-04T13:28:26.347Z,23.15
2023-03-04T13:31:18.526Z,23.75
2023-03-04T13:33:56.464Z,29.92
2023-03-04T13:36:43.042Z,25.33
2023-03-04T13:39:26.425Z,26.70
2023-03-04T13:41:54.363Z,25.98
2023-03-04T13:44:56.007Z,25.77
2023-03-04T13:47:49.602Z,27.15
2023-03-04T13:50:30.545Z,25.13
2023-03-04T13:53:18.212Z,23.13
2023-03-04T13:56:01.604Z,27.55
2023-03-04T13:58:28.427Z,23.08
2023-03-04T14:00:56.001Z,25.17
2023-03-04T14:03:25.679Z,25.35
2023-03-04T14:06:18.212Z,24.77
2023-03-04T14:08:45.767Z,34.55
2023-03-04T14:11:15.382Z,23.38
2023-03-04T14:13:43.120Z,24.27
2023-03-04T14:16:10.488Z,24.08
2023-03-04T14:18:37.321Z,24.63
2023-03-04T14:21:04.714Z,21.20
2023-03-04T14:23:35.403Z,24.15
2023-03-04T14:26:11.468Z,20.77
2023-03-04T14:28:46.815Z,24.52
2023-03-04T14:31:19.785Z,25.92
2023-03-04T14:33:49.144Z,22.42
2023-03-04T14:36:19.664Z,23.52
2023-03-04T14:38:53.501Z,25.45
2023-03-04T14:41:25.967Z,23.65
2023-03-04T14:43:59.688Z,23.80
2023-03-04T14:46:31.816Z,26.60
2023-03-04T14:48:59.292Z,23.63
2023-03-04T14:51:31.574Z,20.58
2023-03-04T14:53:59.871Z,21.38
2023-03-04T14:56:31.178Z,19.45
2023-03-04T14:58:59.165Z,21.23
2023-03-04T15:01:32.265Z,22.30
2023-03-04T15:04:02.542Z,21.40
2023-03-04T15:06:31.151Z,22.15
2023-03-04T15:09:02.040Z,20.17
2023-03-04T15:11:31.667Z,18.60
2023-03-04T15:13:59.744Z,19.38
2023-03-04T15:16:28.494Z,17.83
2023-03-04T15:18:58.530Z,23.35
2023-03-04T15:21:32.528Z,18.67
2023-03-04T15:26:27.545Z,20.05
2023-03-04T15:28:54.390Z,19.50
2023-03-04T15:31:23.666Z,19.77
2023-03-04T15:33:50.734Z,18.70
2023-03-04T15:36:19.949Z,19.50
2023-03-04T15:38:49.905Z,18.50
2023-03-04T15:41:22.485Z,18.27
2023-03-04T15:43:49.394Z,21.25
2023-03-04T15:46:17.715Z,18.48
2023-03-04T15:48:45.299Z,18.50
2023-03-04T15:51:15.028Z,18.52
2023-03-04T15:53:45.865Z,17.70
2023-03-04T15:56:14.978Z,17.33
2023-03-04T15:58:44.022Z,20.25
2023-03-04T16:01:16.333Z,17.98
2023-03-04T16:03:43.346Z,19.73
2023-03-04T16:06:11.577Z,19.30
2023-03-04T16:08:39.347Z,19.98
2023-03-04T16:11:06.360Z,19.52
2023-03-04T16:13:33.286Z,17.90
2023-03-04T16:16:01.524Z,21.25
2023-03-04T16:18:28.347Z,17.95
2023-03-04T16:20:55.292Z,18.95
2023-03-04T16:23:24.115Z,16.98
2023-03-04T16:25:54.246Z,23.48
2023-03-04T16:28:21.280Z,17.88
2023-03-04T16:30:48.524Z,20.25
2023-03-04T16:33:16.815Z,21.38
2023-03-04T16:35:44.380Z,19.92
2023-03-04T16:38:24.397Z,21.75
2023-03-04T16:40:51.387Z,22.10
2023-03-04T16:43:18.337Z,18.88
2023-03-04T16:45:45.142Z,22.55
2023-03-04T16:48:11.920Z,21.13
2023-03-04T16:50:40.417Z,26.98
2023-03-04T16:53:26.673Z,20.02
2023-03-04T16:55:53.700Z,21.50
2023-03-04T16:58:20.552Z,20.55
2023-03-04T17:00:47.323Z,22.08
2023-03-04T17:03:14.119Z,22.98
2023-03-04T17:05:42.268Z,22.95
2023-03-04T17:08:09.031Z,21.88
2023-03-04T17:10:35.763Z,22.20
2023-03-04T17:13:02.519Z,19.35
2023-03-04T17:15:29.367Z,21.50
2023-03-04T17:17:56.140Z,24.60
2023-03-04T17:20:22.942Z,18.42
2023-03-04T17:22:51.164Z,23.30
2023-03-04T17:25:18.071Z,21.38
2023-03-04T17:27:44.844Z,19.63
2023-03-04T17:30:13.068Z,21.65
2023-03-04T17:32:40.525Z,21.15
2023-03-04T17:35:08.475Z,21.23
2023-03-04T17:37:35.721Z,22.17
2023-03-04T17:40:04.856Z,22.02
2023-03-04T17:42:31.851Z,25.05
2023-03-04T17:44:58.645Z,24.25
2023-03-04T17:47:25.785Z,22.80
2023-03-04T17:49:52.632Z,20.45
2023-03-04T17:52:19.376Z,22.83
2023-03-04T17:54:46.500Z,21.20
2023-03-04T17:57:14.881Z,20.60
2023-03-04T17:59:41.741Z,23.63
2023-03-04T18:02:13.654Z,22.63
2023-03-04T18:04:40.501Z,24.17
2023-03-04T18:07:07.600Z,21.00
2023-03-04T18:09:34.535Z,27.15
2023-03-04T18:12:01.427Z,27.20
2023-03-04T18:14:29.571Z,24.58
2023-03-04T18:16:56.572Z,24.48
2023-03-04T18:19:23.368Z,25.55
2023-03-04T18:21:50.219Z,25.67
2023-03-04T18:24:16.954Z,26.30
2023-03-04T18:26:43.738Z,23.98
2023-03-04T18:29:10.506Z,23.70
2023-03-04T18:31:38.685Z,24.38
2023-03-04T18:34:05.715Z,24.00
2023-03-04T18:36:33.488Z,25.95
2023-03-04T18:39:00.274Z,20.98
2023-03-04T18:41:27.885Z,22.10
2023-03-04T18:43:55.175Z,23.73
2023-03-04T18:46:34.810Z,24.02
2023-03-04T18:49:06.175Z,22.75
2023-03-04T18:51:33.451Z,23.25
2023-03-04T18:54:00.214Z,24.63
2023-03-04T18:56:30.766Z,23.42
2023-03-04T18:58:59.207Z,24.15
2023-03-04T19:01:26.678Z,21.35
2023-03-04T19:03:53.708Z,24.55
2023-03-04T19:06:23.608Z,24.02
2023-03-04T19:08:51.765Z,22.67
2023-03-04T19:11:18.586Z,20.83
2023-03-04T19:13:45.365Z,25.38
2023-03-04T19:16:12.150Z,23.48
2023-03-04T19:18:38.953Z,28.10
2023-03-04T19:21:06.317Z,23.45
2023-03-04T19:23:34.895Z,24.55
2023-03-04T19:26:01.817Z,23.20
2023-03-04T19:28:28.628Z,23.10
2023-03-04T19:30:55.436Z,23.45
2023-03-04T19:33:22.292Z,22.33
2023-03-04T19:35:49.254Z,24.73
2023-03-04T19:38:16.071Z,25.10
2023-03-04T19:40:44.530Z,26.02
2023-03-04T19:43:11.334Z,22.52
2023-03-04T19:45:38.346Z,23.48
2023-03-04T19:48:05.642Z,22.15
2023-03-04T19:50:32.634Z,25.30
2023-03-04T19:52:59.424Z,19.48
2023-03-04T19:55:26.371Z,23.05
2023-03-04T19:57:54.552Z,22.48
2023-03-04T20:00:23.893Z,20.52
2023-03-04T20:02:51.077Z,25.05
2023-03-04T20:05:18.057Z,24.63
2023-03-04T20:07:44.811Z,24.92
2023-03-04T20:10:12.707Z,23.23
2023-03-04T20:12:39.693Z,23.23
2023-03-04T20:15:09.335Z,21.90
2023-03-04T20:17:36.234Z,24.23
2023-03-04T20:20:03.385Z,26.90
2023-03-04T20:22:30.215Z,22.40
2023-03-04T20:24:56.977Z,22.92
2023-03-04T20:27:23.796Z,22.63
2023-03-04T20:29:50.788Z,26.75
2023-03-04T20:32:19.016Z,21.65
2023-03-04T20:34:45.873Z,26.50
2023-03-04T20:37:12.769Z,24.75
2023-03-04T20:39:39.629Z,25.25
2023-03-04T20:42:06.533Z,26.40
2023-03-04T20:44:33.458Z,27.25
2023-03-04T20:47:00.264Z,24.65
2023-03-04T20:49:28.896Z,27.67
2023-03-04T20:51:57.688Z,25.63
2023-03-04T20:54:24.499Z,22.98
2023-03-04T20:56:51.380Z,26.42
2023-03-04T20:59:18.421Z,24.35
2023-03-04T21:01:46.224Z,26.23
2023-03-04T21:04:13.212Z,29.58
2023-03-04T21:06:41.431Z,28.83
2023-03-04T21:09:11.429Z,25.13
2023-03-04T21:11:38.749Z,24.05
2023-03-04T21:14:06.641Z,25.13
2023-03-04T21:16:33.897Z,25.00
2023-03-04T21:19:00.686Z,22.95
2023-03-04T21:21:29.307Z,27.48
2023-03-04T21:23:58.919Z,24.83
2023-03-04T21:26:26.311Z,23.67
2023-03-04T21:28:53.812Z,27.00
2023-03-04T21:31:23.871Z,27.42
2023-03-04T21:33:52.659Z,24.80
2023-03-04T21:36:19.613Z,25.63
2023-03-04T21:38:46.678Z,26.77
2023-03-04T21:41:15.702Z,30.88
2023-03-04T21:43:43.155Z,26.67
2023-03-04T21:46:10.428Z,28.55
2023-03-04T21:48:37.322Z,28.40
2023-03-04T21:51:09.573Z,28.75
2023-03-04T21:53:36.755Z,25.63
2023-03-04T21:56:07.217Z,28.27
2023-03-04T21:58:35.489Z,29.65
2023-03-04T22:01:09.662Z,29.42
2023-03-04T22:03:36.514Z,32.70
2023-03-04T22:06:04.591Z,34.95
2023-03-04T22:08:31.481Z,26.52
2023-03-04T22:11:01.999Z,31.48
2023-03-04T22:13:28.798Z,30.05
2023-03-04T22:15:58.277Z,30.13
2023-03-04T22:18:25.493Z,29.85
2023-03-04T22:20:52.349Z,31.95
2023-03-04T22:23:19.468Z,27.77
2023-03-04T22:25:46.571Z,29.85
2023-03-04T22:28:15.748Z,29.80
2023-03-04T22:30:42.525Z,29.08
2023-03-04T22:33:11.987Z,30.27
2023-03-04T22:35:40.187Z,30.00
2023-03-04T22:38:07.081Z,31.00
2023-03-04T22:40:36.084Z,29.10
2023-03-04T22:43:03.055Z,31.55
2023-03-04T22:45:34.043Z,32.90
2023-03-04T22:48:03.777Z,30.48
2023-03-04T22:50:34.631Z,31.70
2023-03-04T22:53:03.229Z,28.88
2023-03-04T22:55:30.109Z,28.40
2023-03-04T22:57:57.139Z,30.15
2023-03-04T23:00:26.468Z,30.33
2023-03-04T23:02:54.054Z,30.58
2023-03-04T23:05:21.490Z,33.67
2023-03-04T23:07:51.054Z,31.48
2023-03-04T23:10:20.062Z,28.25
2023-03-04T23:12:46.822Z,31.65
2023-03-04T23:15:14.281Z,31.58
2023-03-04T23:17:41.204Z,30.75
2023-03-04T23:20:11.487Z,30.15
2023-03-04T23:22:38.323Z,30.77
2023-03-04T23:25:07.507Z,30.75
2023-03-04T23:27:34.354Z,31.88
2023-03-04T23:30:01.490Z,28.63
2023-03-04T23:32:28.401Z,30.33
2023-03-04T23:34:55.278Z,30.85
2023-03-04T23:37:23.330Z,30.77
2023-03-04T23:39:50.242Z,31.08
2023-03-04T23:42:18.335Z,32.80
2023-03-04T23:44:45.048Z,34.40
2023-03-04T23:47:11.792Z,29.90
2023-03-04T23:49:38.914Z,34.13
2023-03-04T23:52:06.474Z,30.85
2023-03-04T23:54:33.204Z,33.10
2023-03-04T23:57:00.762Z,30.23
2023-03-04T23:59:29.525Z,31.25
